Flight Track Log - Related Links

Times and Time Zones

All times are in EDT time to prevent confusion due to time zone crossing. See the N515JM flight status page for this flight to view local times or setup timezone preferences in your user account.

Time Position Orientation Groundspeed Altitude Reporting Facility
EDT Latitude Longitude Course Direction KTS MPH feet Rate Location/Type
Tue 06:20:17 PM 40.9167 -74.0500 360° North 228 262 2,900  Level New York TRACON
Tue 06:21:17 PM 40.9500 -74.1167 304° West 235 270 3,000 50 Climbing New York TRACON
Tue 06:22:17 PM 41.0167 -74.1333 349° North 229 264 3,000  Level New York TRACON
Tue 06:23:17 PM 41.0833 -74.1333 360° North 223 257 3,000  Level New York TRACON
Tue 06:24:17 PM 41.1500 -74.1333 360° North 221 254 3,000  Level New York TRACON
Tue 06:25:23 PM 41.1667 -74.0500 75° East 236 272 3,000  Level New York TRACON
Tue 06:26:23 PM 41.1833 -73.9667 75° East 245 282 3,000  Level New York TRACON
Tue 06:27:23 PM 41.2000 -73.8833 75° East 251 289 3,000  Level New York TRACON
Tue 06:28:17 PM 41.2167 -73.8000 75° East 251 289 3,000  Level New York TRACON
Tue 06:29:23 PM 41.2500 -73.7000 66° East 249 287 3,000  Level New York TRACON
Tue 06:30:23 PM 41.2667 -73.6167 75° East 254 292 3,000  Level New York TRACON
Tue 06:31:23 PM 41.2333 -73.5333 118° Southeast 241 277 3,000  Level New York TRACON
Tue 06:32:29 PM 41.1833 -73.5000 153° Southeast 215 247 3,000  Level New York TRACON
Tue 06:33:23 PM 41.1167 -73.5000 180° South 223 257 3,000  Level New York TRACON
Tue 06:34:23 PM 41.0667 -73.4833 166° South 230 265 3,000  Level New York TRACON
Tue 06:35:23 PM 41.0000 -73.5167 201° Southwest 231 266 3,000 -150 Level New York TRACON
Tue 06:36:23 PM 40.9500 -73.5500 207° Southwest 234 269 2,700 -500 Descending New York TRACON
Tue 06:37:23 PM 40.9500 -73.6333 270° West 232 267 2,000 -350 Descending New York TRACON
Tue 06:38:23 PM 41.0000 -73.6500 346° North 152 175 2,000 -350 Level New York TRACON
Tue 06:39:23 PM 41.0333 -73.6833 323° Northwest 133 153 1,300 -700 Descending New York TRACON
Tue 06:41:00 PM 41.0667 -73.7000 296° West  Level FlightAware Approximate
Tue 06:48:00 PM 41.0669 -73.7076 296° West  Level Estimated
Tue 06:49:00 PM 41.0667 -73.7000 296° West  Level FlightAware Approximate
Tue 06:50:00 PM 41.0669 -73.7076 296° West  Level Estimated

Login

Don't have an account? Register now (free) for customized features, flight alerts, and more!